sensor_id;sensor_type;location;lat;lon;timestamp;temperature;humidity
76613;DHT22;65507;48.454;-2.058;2023-03-01T00:02:04;3.70;71.30
76613;DHT22;65507;48.454;-2.058;2023-03-01T00:04:30;3.00;71.00
76613;DHT22;65507;48.454;-2.058;2023-03-01T00:06:55;4.00;71.50
76613;DHT22;65507;48.454;-2.058;2023-03-01T00:09:21;3.80;71.50
76613;DHT22;65507;48.454;-2.058;2023-03-01T00:11:47;4.60;71.80
76613;DHT22;65507;48.454;-2.058;2023-03-01T00:14:13;2.90;71.00
76613;DHT22;65507;48.454;-2.058;2023-03-01T00:16:40;4.00;71.60
76613;DHT22;65507;48.454;-2.058;2023-03-01T00:19:07;4.10;71.70
76613;DHT22;65507;48.454;-2.058;2023-03-01T00:21:33;4.30;71.80
76613;DHT22;65507;48.454;-2.058;2023-03-01T00:24:01;4.30;71.80
76613;DHT22;65507;48.454;-2.058;2023-03-01T00:26:26;2.80;71.20
76613;DHT22;65507;48.454;-2.058;2023-03-01T00:28:52;3.50;71.40
76613;DHT22;65507;48.454;-2.058;2023-03-01T00:31:19;3.80;71.60
76613;DHT22;65507;48.454;-2.058;2023-03-01T00:33:45;3.80;71.50
76613;DHT22;65507;48.454;-2.058;2023-03-01T00:36:11;2.80;71.00
76613;DHT22;65507;48.454;-2.058;2023-03-01T00:38:42;2.70;70.90
76613;DHT22;65507;48.454;-2.058;2023-03-01T00:41:09;2.70;70.80
76613;DHT22;65507;48.454;-2.058;2023-03-01T00:43:34;2.70;70.70
76613;DHT22;65507;48.454;-2.058;2023-03-01T00:46:06;2.70;70.70
76613;DHT22;65507;48.454;-2.058;2023-03-01T00:48:32;2.70;70.70
76613;DHT22;65507;48.454;-2.058;2023-03-01T00:51:03;4.10;71.50
76613;DHT22;65507;48.454;-2.058;2023-03-01T00:53:29;4.30;71.60
76613;DHT22;65507;48.454;-2.058;2023-03-01T00:55:56;4.00;71.50
76613;DHT22;65507;48.454;-2.058;2023-03-01T00:58:22;2.00;70.40
76613;DHT22;65507;48.454;-2.058;2023-03-01T01:00:47;4.40;71.80
76613;DHT22;65507;48.454;-2.058;2023-03-01T01:03:13;4.50;71.80
76613;DHT22;65507;48.454;-2.058;2023-03-01T01:05:38;3.50;71.30
76613;DHT22;65507;48.454;-2.058;2023-03-01T01:08:04;4.00;71.50
76613;DHT22;65507;48.454;-2.058;2023-03-01T01:10:29;2.50;70.70
76613;DHT22;65507;48.454;-2.058;2023-03-01T01:12:55;3.50;71.40
76613;DHT22;65507;48.454;-2.058;2023-03-01T01:15:20;4.10;71.70
76613;DHT22;65507;48.454;-2.058;2023-03-01T01:17:46;4.40;71.80
76613;DHT22;65507;48.454;-2.058;2023-03-01T01:20:11;2.40;70.70
76613;DHT22;65507;48.454;-2.058;2023-03-01T01:22:37;2.40;70.70
76613;DHT22;65507;48.454;-2.058;2023-03-01T01:25:03;4.00;71.60
76613;DHT22;65507;48.454;-2.058;2023-03-01T01:27:29;2.40;70.80
76613;DHT22;65507;48.454;-2.058;2023-03-01T01:29:54;2.40;70.80
76613;DHT22;65507;48.454;-2.058;2023-03-01T01:32:20;2.40;70.90
76613;DHT22;65507;48.454;-2.058;2023-03-01T01:34:45;2.30;70.80
76613;DHT22;65507;48.454;-2.058;2023-03-01T01:37:11;4.20;71.80
76613;DHT22;65507;48.454;-2.058;2023-03-01T01:39:37;3.90;71.70
76613;DHT22;65507;48.454;-2.058;2023-03-01T01:42:02;4.40;71.90
76613;DHT22;65507;48.454;-2.058;2023-03-01T01:44:28;2.40;70.90
76613;DHT22;65507;48.454;-2.058;2023-03-01T01:47:04;2.30;71.70
76613;DHT22;65507;48.454;-2.058;2023-03-01T01:49:32;2.30;70.80
76613;DHT22;65507;48.454;-2.058;2023-03-01T01:57:06;2.20;70.70
76613;DHT22;65507;48.454;-2.058;2023-03-01T01:59:32;2.20;70.70
76613;DHT22;65507;48.454;-2.058;2023-03-01T02:01:59;3.80;71.60
76613;DHT22;65507;48.454;-2.058;2023-03-01T02:04:25;2.20;70.70
76613;DHT22;65507;48.454;-2.058;2023-03-01T02:06:53;2.90;71.20
76613;DHT22;65507;48.454;-2.058;2023-03-01T02:09:21;2.80;72.00
76613;DHT22;65507;48.454;-2.058;2023-03-01T02:11:47;3.10;71.20
76613;DHT22;65507;48.454;-2.058;2023-03-01T02:14:14;4.30;71.90
76613;DHT22;65507;48.454;-2.058;2023-03-01T02:16:40;2.10;70.70
76613;DHT22;65507;48.454;-2.058;2023-03-01T02:19:06;2.10;70.90
76613;DHT22;65507;48.454;-2.058;2023-03-01T02:21:37;4.10;71.80
76613;DHT22;65507;48.454;-2.058;2023-03-01T02:24:07;2.10;70.80
76613;DHT22;65507;48.454;-2.058;2023-03-01T02:26:42;2.10;70.80
76613;DHT22;65507;48.454;-2.058;2023-03-01T02:29:10;2.00;70.70
76613;DHT22;65507;48.454;-2.058;2023-03-01T02:31:35;3.90;71.70
76613;DHT22;65507;48.454;-2.058;2023-03-01T02:34:16;2.40;71.00
76613;DHT22;65507;48.454;-2.058;2023-03-01T02:36:44;2.00;70.70
76613;DHT22;65507;48.454;-2.058;2023-03-01T02:39:12;2.60;71.00
76613;DHT22;65507;48.454;-2.058;2023-03-01T02:41:42;2.00;70.60
76613;DHT22;65507;48.454;-2.058;2023-03-01T02:44:09;2.90;71.10
76613;DHT22;65507;48.454;-2.058;2023-03-01T02:46:41;3.10;71.20
76613;DHT22;65507;48.454;-2.058;2023-03-01T02:49:26;3.60;71.50
76613;DHT22;65507;48.454;-2.058;2023-03-01T02:54:25;1.90;70.60
76613;DHT22;65507;48.454;-2.058;2023-03-01T02:56:53;1.90;70.60
76613;DHT22;65507;48.454;-2.058;2023-03-01T02:59:21;4.00;71.80
76613;DHT22;65507;48.454;-2.058;2023-03-01T03:01:47;4.00;71.80
76613;DHT22;65507;48.454;-2.058;2023-03-01T03:04:14;2.70;71.00
76613;DHT22;65507;48.454;-2.058;2023-03-01T03:06:46;1.90;70.70
76613;DHT22;65507;48.454;-2.058;2023-03-01T03:09:12;2.30;70.90
76613;DHT22;65507;48.454;-2.058;2023-03-01T03:11:38;1.90;70.70
76613;DHT22;65507;48.454;-2.058;2023-03-01T03:14:06;3.80;71.80
76613;DHT22;65507;48.454;-2.058;2023-03-01T03:16:58;3.10;71.40
76613;DHT22;65507;48.454;-2.058;2023-03-01T03:19:23;3.90;71.90
76613;DHT22;65507;48.454;-2.058;2023-03-01T03:21:49;3.90;71.80
76613;DHT22;65507;48.454;-2.058;2023-03-01T03:24:14;3.50;71.70
76613;DHT22;65507;48.454;-2.058;2023-03-01T03:26:40;1.80;70.70
76613;DHT22;65507;48.454;-2.058;2023-03-01T03:29:05;3.70;71.80
76613;DHT22;65507;48.454;-2.058;2023-03-01T03:31:31;2.30;71.00
76613;DHT22;65507;48.454;-2.058;2023-03-01T03:33:57;1.80;70.70
76613;DHT22;65507;48.454;-2.058;2023-03-01T03:36:24;3.60;71.70
76613;DHT22;65507;48.454;-2.058;2023-03-01T03:38:50;3.80;71.80
76613;DHT22;65507;48.454;-2.058;2023-03-01T03:41:15;1.70;70.70
76613;DHT22;65507;48.454;-2.058;2023-03-01T03:43:41;2.30;71.00
76613;DHT22;65507;48.454;-2.058;2023-03-01T03:46:08;1.70;70.70
76613;DHT22;65507;48.454;-2.058;2023-03-01T03:48:35;1.80;70.80
76613;DHT22;65507;48.454;-2.058;2023-03-01T03:51:01;1.80;70.60
76613;DHT22;65507;48.454;-2.058;2023-03-01T03:53:27;1.80;70.60
76613;DHT22;65507;48.454;-2.058;2023-03-01T03:55:53;3.90;71.70
76613;DHT22;65507;48.454;-2.058;2023-03-01T03:58:20;3.40;71.40
76613;DHT22;65507;48.454;-2.058;2023-03-01T04:00:47;2.20;71.60
76613;DHT22;65507;48.454;-2.058;2023-03-01T04:03:14;1.80;70.60
76613;DHT22;65507;48.454;-2.058;2023-03-01T04:05:40;3.30;71.40
76613;DHT22;65507;48.454;-2.058;2023-03-01T04:08:06;3.90;71.70
76613;DHT22;65507;48.454;-2.058;2023-03-01T04:10:42;1.70;70.50
76613;DHT22;65507;48.454;-2.058;2023-03-01T04:13:09;3.80;71.60
76613;DHT22;65507;48.454;-2.058;2023-03-01T04:15:35;2.70;71.00
76613;DHT22;65507;48.454;-2.058;2023-03-01T04:18:01;2.20;70.70
76613;DHT22;65507;48.454;-2.058;2023-03-01T04:20:29;1.70;70.40
76613;DHT22;65507;48.454;-2.058;2023-03-01T04:22:58;1.70;70.40
76613;DHT22;65507;48.454;-2.058;2023-03-01T04:25:24;1.70;70.40
76613;DHT22;65507;48.454;-2.058;2023-03-01T04:27:50;3.00;71.10
76613;DHT22;65507;48.454;-2.058;2023-03-01T04:30:15;2.00;70.50
76613;DHT22;65507;48.454;-2.058;2023-03-01T04:32:41;1.70;70.30
76613;DHT22;65507;48.454;-2.058;2023-03-01T04:35:07;2.20;70.60
76613;DHT22;65507;48.454;-2.058;2023-03-01T04:37:33;1.70;70.30
76613;DHT22;65507;48.454;-2.058;2023-03-01T04:40:00;3.80;71.40
76613;DHT22;65507;48.454;-2.058;2023-03-01T04:42:25;3.30;71.10
76613;DHT22;65507;48.454;-2.058;2023-03-01T04:44:52;3.60;71.20
76613;DHT22;65507;48.454;-2.058;2023-03-01T04:47:17;3.60;72.10
76613;DHT22;65507;48.454;-2.058;2023-03-01T04:49:43;1.80;70.20
76613;DHT22;65507;48.454;-2.058;2023-03-01T04:52:08;2.30;70.50
76613;DHT22;65507;48.454;-2.058;2023-03-01T04:54:34;2.10;70.30
76613;DHT22;65507;48.454;-2.058;2023-03-01T04:57:01;1.80;70.10
76613;DHT22;65507;48.454;-2.058;2023-03-01T04:59:26;3.50;71.10
76613;DHT22;65507;48.454;-2.058;2023-03-01T05:01:52;2.10;70.30
76613;DHT22;65507;48.454;-2.058;2023-03-01T05:04:21;1.80;70.10
76613;DHT22;65507;48.454;-2.058;2023-03-01T05:06:46;1.80;70.10
76613;DHT22;65507;48.454;-2.058;2023-03-01T05:09:12;3.50;71.00
76613;DHT22;65507;48.454;-2.058;2023-03-01T05:11:37;3.00;70.70
76613;DHT22;65507;48.454;-2.058;2023-03-01T05:14:04;3.70;71.10
76613;DHT22;65507;48.454;-2.058;2023-03-01T05:16:29;3.50;71.00
76613;DHT22;65507;48.454;-2.058;2023-03-01T05:18:56;3.70;71.20
76613;DHT22;65507;48.454;-2.058;2023-03-01T05:21:22;1.90;70.20
76613;DHT22;65507;48.454;-2.058;2023-03-01T05:23:48;1.80;70.10
76613;DHT22;65507;48.454;-2.058;2023-03-01T05:26:14;2.10;70.30
76613;DHT22;65507;48.454;-2.058;2023-03-01T05:28:40;2.20;70.40
76613;DHT22;65507;48.454;-2.058;2023-03-01T05:31:05;2.20;70.40
76613;DHT22;65507;48.454;-2.058;2023-03-01T05:33:40;3.50;71.20
76613;DHT22;65507;48.454;-2.058;2023-03-01T05:36:07;1.70;70.20
76613;DHT22;65507;48.454;-2.058;2023-03-01T05:38:33;1.70;70.30
76613;DHT22;65507;48.454;-2.058;2023-03-01T05:40:59;1.70;70.20
76613;DHT22;65507;48.454;-2.058;2023-03-01T05:43:24;3.70;71.20
76613;DHT22;65507;48.454;-2.058;2023-03-01T05:45:50;-0.20;69.10
76613;DHT22;65507;48.454;-2.058;2023-03-01T05:48:16;2.20;70.40
76613;DHT22;65507;48.454;-2.058;2023-03-01T05:50:44;2.10;70.40
76613;DHT22;65507;48.454;-2.058;2023-03-01T05:53:12;1.70;70.40
76613;DHT22;65507;48.454;-2.058;2023-03-01T05:55:38;3.30;71.30
76613;DHT22;65507;48.454;-2.058;2023-03-01T05:58:05;2.20;70.90
76613;DHT22;65507;48.454;-2.058;2023-03-01T06:00:31;1.50;70.60
76613;DHT22;65507;48.454;-2.058;2023-03-01T06:02:57;1.50;70.70
76613;DHT22;65507;48.454;-2.058;2023-03-01T06:05:23;1.90;70.90
76613;DHT22;65507;48.454;-2.058;2023-03-01T06:07:50;3.30;71.70
76613;DHT22;65507;48.454;-2.058;2023-03-01T06:10:15;1.50;71.10
76613;DHT22;65507;48.454;-2.058;2023-03-01T06:12:42;1.70;70.80
76613;DHT22;65507;48.454;-2.058;2023-03-01T06:15:09;1.50;70.70
76613;DHT22;65507;48.454;-2.058;2023-03-01T06:17:36;1.50;70.70
76613;DHT22;65507;48.454;-2.058;2023-03-01T06:20:06;1.70;70.80
76613;DHT22;65507;48.454;-2.058;2023-03-01T06:22:32;1.50;70.70
76613;DHT22;65507;48.454;-2.058;2023-03-01T06:24:57;3.50;71.70
76613;DHT22;65507;48.454;-2.058;2023-03-01T06:27:23;2.70;71.80
76613;DHT22;65507;48.454;-2.058;2023-03-01T06:29:48;1.40;70.80
76613;DHT22;65507;48.454;-2.058;2023-03-01T06:32:14;2.70;71.40
76613;DHT22;65507;48.454;-2.058;2023-03-01T06:34:40;2.10;71.10
76613;DHT22;65507;48.454;-2.058;2023-03-01T06:37:06;1.40;70.70
76613;DHT22;65507;48.454;-2.058;2023-03-01T06:39:32;2.50;71.10
76613;DHT22;65507;48.454;-2.058;2023-03-01T06:41:57;2.70;71.20
76613;DHT22;65507;48.454;-2.058;2023-03-01T06:44:23;2.70;71.10
76613;DHT22;65507;48.454;-2.058;2023-03-01T06:46:49;1.50;70.50
76613;DHT22;65507;48.454;-2.058;2023-03-01T06:49:14;3.40;71.50
76613;DHT22;65507;48.454;-2.058;2023-03-01T06:51:41;3.40;71.50
76613;DHT22;65507;48.454;-2.058;2023-03-01T06:54:07;2.30;71.00
76613;DHT22;65507;48.454;-2.058;2023-03-01T06:56:32;1.40;70.50
76613;DHT22;65507;48.454;-2.058;2023-03-01T06:58:59;1.40;70.70
76613;DHT22;65507;48.454;-2.058;2023-03-01T07:01:24;2.40;71.10
76613;DHT22;65507;48.454;-2.058;2023-03-01T07:03:50;3.00;71.50
76613;DHT22;65507;48.454;-2.058;2023-03-01T07:06:15;2.90;71.40
76613;DHT22;65507;48.454;-2.058;2023-03-01T07:08:41;3.50;71.60
76613;DHT22;65507;48.454;-2.058;2023-03-01T07:11:07;1.90;70.60
76613;DHT22;65507;48.454;-2.058;2023-03-01T07:13:33;1.40;70.40
76613;DHT22;65507;48.454;-2.058;2023-03-01T07:15:58;1.60;70.40
76613;DHT22;65507;48.454;-2.058;2023-03-01T07:18:24;1.50;70.20
76613;DHT22;65507;48.454;-2.058;2023-03-01T07:20:49;2.00;70.50
76613;DHT22;65507;48.454;-2.058;2023-03-01T07:23:15;1.60;70.10
76613;DHT22;65507;48.454;-2.058;2023-03-01T07:25:41;1.60;70.10
76613;DHT22;65507;48.454;-2.058;2023-03-01T07:28:07;1.70;70.00
76613;DHT22;65507;48.454;-2.058;2023-03-01T07:30:33;3.50;70.80
76613;DHT22;65507;48.454;-2.058;2023-03-01T07:38:09;1.90;69.80
76613;DHT22;65507;48.454;-2.058;2023-03-01T07:40:35;1.90;70.10
76613;DHT22;65507;48.454;-2.058;2023-03-01T07:43:01;2.00;69.80
76613;DHT22;65507;48.454;-2.058;2023-03-01T07:45:27;2.00;69.90
76613;DHT22;65507;48.454;-2.058;2023-03-01T07:47:53;2.10;70.00
76613;DHT22;65507;48.454;-2.058;2023-03-01T07:50:19;2.10;69.70
76613;DHT22;65507;48.454;-2.058;2023-03-01T07:52:45;2.20;69.80
76613;DHT22;65507;48.454;-2.058;2023-03-01T07:55:11;1.20;69.30
76613;DHT22;65507;48.454;-2.058;2023-03-01T07:57:36;3.50;70.80
76613;DHT22;65507;48.454;-2.058;2023-03-01T08:00:02;2.40;72.00
76613;DHT22;65507;48.454;-2.058;2023-03-01T08:02:28;2.50;69.80
76613;DHT22;65507;48.454;-2.058;2023-03-01T08:04:54;2.60;69.90
76613;DHT22;65507;48.454;-2.058;2023-03-01T08:07:20;2.00;69.60
76613;DHT22;65507;48.454;-2.058;2023-03-01T08:09:45;2.90;69.70
76613;DHT22;65507;48.454;-2.058;2023-03-01T08:12:11;3.00;69.10
76613;DHT22;65507;48.454;-2.058;2023-03-01T08:14:37;3.20;69.10
76613;DHT22;65507;48.454;-2.058;2023-03-01T08:17:02;3.30;68.70
76613;DHT22;65507;48.454;-2.058;2023-03-01T08:19:28;3.50;68.90
76613;DHT22;65507;48.454;-2.058;2023-03-01T08:21:54;3.60;68.70
76613;DHT22;65507;48.454;-2.058;2023-03-01T08:24:20;3.70;68.90
76613;DHT22;65507;48.454;-2.058;2023-03-01T08:26:45;3.80;68.60
76613;DHT22;65507;48.454;-2.058;2023-03-01T08:29:11;4.00;68.10
76613;DHT22;65507;48.454;-2.058;2023-03-01T08:31:38;4.00;68.50
76613;DHT22;65507;48.454;-2.058;2023-03-01T08:34:05;4.10;67.90
76613;DHT22;65507;48.454;-2.058;2023-03-01T08:36:32;4.20;67.70
76613;DHT22;65507;48.454;-2.058;2023-03-01T08:38:59;4.40;68.30
76613;DHT22;65507;48.454;-2.058;2023-03-01T08:41:25;4.40;68.50
76613;DHT22;65507;48.454;-2.058;2023-03-01T08:43:51;4.60;67.60
76613;DHT22;65507;48.454;-2.058;2023-03-01T08:46:18;4.60;68.60
76613;DHT22;65507;48.454;-2.058;2023-03-01T08:48:43;4.80;68.10
76613;DHT22;65507;48.454;-2.058;2023-03-01T08:51:13;4.80;68.50
76613;DHT22;65507;48.454;-2.058;2023-03-01T08:53:39;4.90;66.80
76613;DHT22;65507;48.454;-2.058;2023-03-01T08:56:05;5.00;67.90
76613;DHT22;65507;48.454;-2.058;2023-03-01T08:58:31;5.10;68.20
76613;DHT22;65507;48.454;-2.058;2023-03-01T09:00:57;4.60;67.70
76613;DHT22;65507;48.454;-2.058;2023-03-01T09:03:24;5.20;67.60
76613;DHT22;65507;48.454;-2.058;2023-03-01T09:05:52;5.30;68.00
76613;DHT22;65507;48.454;-2.058;2023-03-01T09:08:19;4.00;67.50
76613;DHT22;65507;48.454;-2.058;2023-03-01T09:10:45;5.50;66.70
76613;DHT22;65507;48.454;-2.058;2023-03-01T09:13:11;5.50;66.50
76613;DHT22;65507;48.454;-2.058;2023-03-01T09:15:37;5.50;66.50
76613;DHT22;65507;48.454;-2.058;2023-03-01T09:18:03;5.50;66.50
76613;DHT22;65507;48.454;-2.058;2023-03-01T09:20:29;5.60;66.50
76613;DHT22;65507;48.454;-2.058;2023-03-01T09:22:56;5.70;66.40
76613;DHT22;65507;48.454;-2.058;2023-03-01T09:25:21;5.80;66.40
76613;DHT22;65507;48.454;-2.058;2023-03-01T09:27:47;5.90;66.20
76613;DHT22;65507;48.454;-2.058;2023-03-01T09:30:13;6.00;66.20
76613;DHT22;65507;48.454;-2.058;2023-03-01T09:32:38;6.00;66.10
76613;DHT22;65507;48.454;-2.058;2023-03-01T09:35:08;6.10;66.00
76613;DHT22;65507;48.454;-2.058;2023-03-01T09:37:34;6.20;66.10
76613;DHT22;65507;48.454;-2.058;2023-03-01T09:40:00;6.20;65.80
76613;DHT22;65507;48.454;-2.058;2023-03-01T09:42:25;6.20;65.70
76613;DHT22;65507;48.454;-2.058;2023-03-01T09:45:03;6.30;66.00
76613;DHT22;65507;48.454;-2.058;2023-03-01T09:47:33;6.30;65.60
76613;DHT22;65507;48.454;-2.058;2023-03-01T09:52:35;6.50;65.50
76613;DHT22;65507;48.454;-2.058;2023-03-01T09:55:04;6.50;65.40
76613;DHT22;65507;48.454;-2.058;2023-03-01T09:58:11;6.50;65.20
76613;DHT22;65507;48.454;-2.058;2023-03-01T10:00:30;6.60;65.20
76613;DHT22;65507;48.454;-2.058;2023-03-01T10:03:16;8.00;65.80
76613;DHT22;65507;48.454;-2.058;2023-03-01T10:05:56;6.80;65.10
76613;DHT22;65507;48.454;-2.058;2023-03-01T10:08:28;6.80;65.10
76613;DHT22;65507;48.454;-2.058;2023-03-01T10:10:56;6.90;65.00
76613;DHT22;65507;48.454;-2.058;2023-03-01T10:13:28;6.90;65.20
76613;DHT22;65507;48.454;-2.058;2023-03-01T10:15:57;7.00;65.10
76613;DHT22;65507;48.454;-2.058;2023-03-01T10:18:30;7.00;64.80
76613;DHT22;65507;48.454;-2.058;2023-03-01T10:20:58;7.00;64.80
76613;DHT22;65507;48.454;-2.058;2023-03-01T10:23:25;7.00;65.70
76613;DHT22;65507;48.454;-2.058;2023-03-01T10:31:22;7.00;64.50
76613;DHT22;65507;48.454;-2.058;2023-03-01T10:33:53;7.10;64.50
76613;DHT22;65507;48.454;-2.058;2023-03-01T10:36:21;7.10;64.50
76613;DHT22;65507;48.454;-2.058;2023-03-01T10:38:56;7.10;64.30
76613;DHT22;65507;48.454;-2.058;2023-03-01T10:41:23;7.10;64.30
76613;DHT22;65507;48.454;-2.058;2023-03-01T10:43:50;7.10;64.30
76613;DHT22;65507;48.454;-2.058;2023-03-01T10:46:30;7.10;64.00
76613;DHT22;65507;48.454;-2.058;2023-03-01T10:51:41;7.00;64.90
76613;DHT22;65507;48.454;-2.058;2023-03-01T10:54:15;7.00;64.00
76613;DHT22;65507;48.454;-2.058;2023-03-01T10:57:22;7.10;64.00
76613;DHT22;65507;48.454;-2.058;2023-03-01T10:59:34;7.20;63.90
76613;DHT22;65507;48.454;-2.058;2023-03-01T11:02:04;7.30;63.80
76613;DHT22;65507;48.454;-2.058;2023-03-01T11:04:38;6.30;63.30
76613;DHT22;65507;48.454;-2.058;2023-03-01T11:07:03;7.40;63.80
76613;DHT22;65507;48.454;-2.058;2023-03-01T11:09:31;7.40;63.80
76613;DHT22;65507;48.454;-2.058;2023-03-01T11:12:03;7.40;63.40
76613;DHT22;65507;48.454;-2.058;2023-03-01T11:14:38;7.40;63.50
76613;DHT22;65507;48.454;-2.058;2023-03-01T11:19:37;7.40;63.60
76613;DHT22;65507;48.454;-2.058;2023-03-01T11:24:41;7.50;63.70
76613;DHT22;65507;48.454;-2.058;2023-03-01T11:27:31;7.60;64.50
76613;DHT22;65507;48.454;-2.058;2023-03-01T11:32:23;7.70;63.40
76613;DHT22;65507;48.454;-2.058;2023-03-01T11:34:57;7.80;63.40
76613;DHT22;65507;48.454;-2.058;2023-03-01T11:40:03;7.90;63.10
76613;DHT22;65507;48.454;-2.058;2023-03-01T11:45:09;7.80;63.30
76613;DHT22;65507;48.454;-2.058;2023-03-01T11:50:29;7.70;63.50
76613;DHT22;65507;48.454;-2.058;2023-03-01T11:53:01;9.70;64.60
76613;DHT22;65507;48.454;-2.058;2023-03-01T11:55:36;7.90;63.50
76613;DHT22;65507;48.454;-2.058;2023-03-01T12:00:49;8.00;63.10
76613;DHT22;65507;48.454;-2.058;2023-03-01T12:03:27;7.90;63.00
76613;DHT22;65507;48.454;-2.058;2023-03-01T12:06:05;7.90;63.10
76613;DHT22;65507;48.454;-2.058;2023-03-01T12:11:18;8.00;63.00
76613;DHT22;65507;48.454;-2.058;2023-03-01T12:13:52;8.10;62.90
76613;DHT22;65507;48.454;-2.058;2023-03-01T12:29:17;8.30;62.30
76613;DHT22;65507;48.454;-2.058;2023-03-01T12:31:48;8.20;62.10
76613;DHT22;65507;48.454;-2.058;2023-03-01T12:44:24;8.60;62.20
76613;DHT22;65507;48.454;-2.058;2023-03-01T12:47:04;8.80;61.90
76613;DHT22;65507;48.454;-2.058;2023-03-01T12:49:32;8.90;61.70
76613;DHT22;65507;48.454;-2.058;2023-03-01T12:52:00;9.00;61.60
76613;DHT22;65507;48.454;-2.058;2023-03-01T12:54:30;9.00;61.60
76613;DHT22;65507;48.454;-2.058;2023-03-01T12:56:57;9.10;61.70
76613;DHT22;65507;48.454;-2.058;2023-03-01T13:04:31;9.30;61.50
76613;DHT22;65507;48.454;-2.058;2023-03-01T13:09:29;9.50;61.40
76613;DHT22;65507;48.454;-2.058;2023-03-01T13:11:58;9.50;61.60
76613;DHT22;65507;48.454;-2.058;2023-03-01T13:16:49;9.60;61.50
76613;DHT22;65507;48.454;-2.058;2023-03-01T13:19:20;9.60;61.20
76613;DHT22;65507;48.454;-2.058;2023-03-01T13:21:47;9.50;61.30
76613;DHT22;65507;48.454;-2.058;2023-03-01T13:29:54;9.40;61.60
76613;DHT22;65507;48.454;-2.058;2023-03-01T13:34:49;10.00;61.80
76613;DHT22;65507;48.454;-2.058;2023-03-01T13:37:26;9.40;61.40
76613;DHT22;65507;48.454;-2.058;2023-03-01T13:39:55;9.40;61.20
76613;DHT22;65507;48.454;-2.058;2023-03-01T13:42:33;9.40;61.20
76613;DHT22;65507;48.454;-2.058;2023-03-01T13:44:59;9.50;61.20
76613;DHT22;65507;48.454;-2.058;2023-03-01T13:47:25;9.60;61.00
76613;DHT22;65507;48.454;-2.058;2023-03-01T13:49:56;9.70;61.10
76613;DHT22;65507;48.454;-2.058;2023-03-01T13:52:40;9.70;61.00
76613;DHT22;65507;48.454;-2.058;2023-03-01T13:55:24;9.60;60.90
76613;DHT22;65507;48.454;-2.058;2023-03-01T13:57:53;9.50;61.10
76613;DHT22;65507;48.454;-2.058;2023-03-01T14:00:29;9.50;61.20
76613;DHT22;65507;48.454;-2.058;2023-03-01T14:05:27;9.30;61.50
76613;DHT22;65507;48.454;-2.058;2023-03-01T14:07:54;9.20;61.60
76613;DHT22;65507;48.454;-2.058;2023-03-01T14:10:19;9.10;61.70
76613;DHT22;65507;48.454;-2.058;2023-03-01T14:12:50;9.20;61.60
76613;DHT22;65507;48.454;-2.058;2023-03-01T14:15:28;9.20;61.60
76613;DHT22;65507;48.454;-2.058;2023-03-01T14:17:59;9.20;61.50
76613;DHT22;65507;48.454;-2.058;2023-03-01T14:20:26;9.20;61.70
76613;DHT22;65507;48.454;-2.058;2023-03-01T14:22:53;9.30;61.50
76613;DHT22;65507;48.454;-2.058;2023-03-01T14:25:21;9.20;61.40
76613;DHT22;65507;48.454;-2.058;2023-03-01T14:27:51;9.20;61.40
76613;DHT22;65507;48.454;-2.058;2023-03-01T14:30:27;9.20;61.60
76613;DHT22;65507;48.454;-2.058;2023-03-01T14:33:03;9.20;61.20
76613;DHT22;65507;48.454;-2.058;2023-03-01T14:35:31;9.20;61.10
76613;DHT22;65507;48.454;-2.058;2023-03-01T14:37:57;9.10;61.20
76613;DHT22;65507;48.454;-2.058;2023-03-01T14:40:33;9.10;61.20
76613;DHT22;65507;48.454;-2.058;2023-03-01T14:43:00;9.10;61.20
76613;DHT22;65507;48.454;-2.058;2023-03-01T14:45:27;9.10;61.00
76613;DHT22;65507;48.454;-2.058;2023-03-01T14:47:54;9.00;60.90
76613;DHT22;65507;48.454;-2.058;2023-03-01T14:50:28;9.00;61.10
76613;DHT22;65507;48.454;-2.058;2023-03-01T14:52:55;9.00;60.90
76613;DHT22;65507;48.454;-2.058;2023-03-01T14:55:25;9.00;60.90
76613;DHT22;65507;48.454;-2.058;2023-03-01T14:57:51;9.00;60.80
76613;DHT22;65507;48.454;-2.058;2023-03-01T15:02:42;9.10;61.10
76613;DHT22;65507;48.454;-2.058;2023-03-01T15:05:08;9.10;60.90
76613;DHT22;65507;48.454;-2.058;2023-03-01T15:07:36;9.00;60.80
76613;DHT22;65507;48.454;-2.058;2023-03-01T15:10:03;8.90;61.00
76613;DHT22;65507;48.454;-2.058;2023-03-01T15:12:36;8.90;61.10
76613;DHT22;65507;48.454;-2.058;2023-03-01T15:15:19;8.90;61.00
76613;DHT22;65507;48.454;-2.058;2023-03-01T15:17:49;8.80;61.10
76613;DHT22;65507;48.454;-2.058;2023-03-01T15:20:16;8.90;61.20
76613;DHT22;65507;48.454;-2.058;2023-03-01T15:22:46;8.90;61.20
76613;DHT22;65507;48.454;-2.058;2023-03-01T15:25:14;8.90;61.20
76613;DHT22;65507;48.454;-2.058;2023-03-01T15:27:43;8.90;61.00
76613;DHT22;65507;48.454;-2.058;2023-03-01T15:30:17;8.90;60.80
76613;DHT22;65507;48.454;-2.058;2023-03-01T15:32:43;8.90;60.80
76613;DHT22;65507;48.454;-2.058;2023-03-01T15:37:54;6.80;59.80
76613;DHT22;65507;48.454;-2.058;2023-03-01T15:40:37;8.90;60.80
76613;DHT22;65507;48.454;-2.058;2023-03-01T15:43:21;8.90;60.80
76613;DHT22;65507;48.454;-2.058;2023-03-01T15:45:56;9.00;60.80
76613;DHT22;65507;48.454;-2.058;2023-03-01T15:48:22;9.00;60.70
76613;DHT22;65507;48.454;-2.058;2023-03-01T15:50:57;9.10;60.80
76613;DHT22;65507;48.454;-2.058;2023-03-01T15:53:23;9.10;60.70
76613;DHT22;65507;48.454;-2.058;2023-03-01T15:55:49;9.10;60.70
76613;DHT22;65507;48.454;-2.058;2023-03-01T16:00:41;9.10;60.70
76613;DHT22;65507;48.454;-2.058;2023-03-01T16:03:07;9.10;60.70
76613;DHT22;65507;48.454;-2.058;2023-03-01T16:05:34;9.10;60.70
76613;DHT22;65507;48.454;-2.058;2023-03-01T16:08:01;9.00;60.80
76613;DHT22;65507;48.454;-2.058;2023-03-01T16:10:27;7.20;59.90
76613;DHT22;65507;48.454;-2.058;2023-03-01T16:12:53;9.00;61.00
76613;DHT22;65507;48.454;-2.058;2023-03-01T16:15:19;9.00;61.20
76613;DHT22;65507;48.454;-2.058;2023-03-01T16:17:45;9.00;60.80
76613;DHT22;65507;48.454;-2.058;2023-03-01T16:20:11;9.00;61.10
76613;DHT22;65507;48.454;-2.058;2023-03-01T16:22:37;8.90;61.00
76613;DHT22;65507;48.454;-2.058;2023-03-01T16:25:02;8.90;61.10
76613;DHT22;65507;48.454;-2.058;2023-03-01T16:27:28;8.90;61.20
76613;DHT22;65507;48.454;-2.058;2023-03-01T16:29:54;8.80;61.10
76613;DHT22;65507;48.454;-2.058;2023-03-01T16:32:19;8.80;61.10
76613;DHT22;65507;48.454;-2.058;2023-03-01T16:34:45;8.70;61.20
76613;DHT22;65507;48.454;-2.058;2023-03-01T16:37:12;8.60;61.20
76613;DHT22;65507;48.454;-2.058;2023-03-01T16:39:38;8.50;61.40
76613;DHT22;65507;48.454;-2.058;2023-03-01T16:42:04;8.40;61.40
76613;DHT22;65507;48.454;-2.058;2023-03-01T16:44:29;8.30;61.50
76613;DHT22;65507;48.454;-2.058;2023-03-01T16:46:55;8.20;61.50
76613;DHT22;65507;48.454;-2.058;2023-03-01T16:49:21;8.20;62.00
76613;DHT22;65507;48.454;-2.058;2023-03-01T16:51:46;8.20;61.80
76613;DHT22;65507;48.454;-2.058;2023-03-01T16:54:12;8.10;61.70
76613;DHT22;65507;48.454;-2.058;2023-03-01T16:56:37;8.00;61.70
76613;DHT22;65507;48.454;-2.058;2023-03-01T16:59:05;8.00;61.90
76613;DHT22;65507;48.454;-2.058;2023-03-01T17:01:30;7.90;61.80
76613;DHT22;65507;48.454;-2.058;2023-03-01T17:04:02;7.90;62.20
76613;DHT22;65507;48.454;-2.058;2023-03-01T17:06:28;7.80;62.10
76613;DHT22;65507;48.454;-2.058;2023-03-01T17:08:54;7.70;62.10
76613;DHT22;65507;48.454;-2.058;2023-03-01T17:11:20;7.70;62.70